createdAt,value
2022-08-23T00:03:01.641Z,19.7
2022-08-23T00:08:01.769Z,19.7
2022-08-23T00:13:01.551Z,19.6
2022-08-23T00:18:01.704Z,19.5
2022-08-23T00:23:01.553Z,19.4
2022-08-23T00:28:01.719Z,19.3
2022-08-23T00:33:01.553Z,19.2
2022-08-23T00:38:33.298Z,19.2
2022-08-23T00:43:01.560Z,19.1
2022-08-23T00:48:01.903Z,19.0
2022-08-23T00:53:01.562Z,18.9
2022-08-23T00:58:01.816Z,18.9
2022-08-23T01:03:01.569Z,18.8
2022-08-23T01:08:01.794Z,18.8
2022-08-23T01:13:01.595Z,18.7
2022-08-23T01:18:01.689Z,18.7
2022-08-23T01:23:01.582Z,18.6
2022-08-23T01:28:01.766Z,18.6
2022-08-23T01:33:01.582Z,18.5
2022-08-23T01:38:01.768Z,18.5
2022-08-23T01:43:01.586Z,18.5
2022-08-23T01:48:01.881Z,18.5
2022-08-23T01:53:01.886Z,18.5
2022-08-23T01:58:01.593Z,18.4
2022-08-23T02:03:01.842Z,18.4
2022-08-23T02:08:01.700Z,18.4
2022-08-23T02:13:01.601Z,18.3
2022-08-23T02:18:01.723Z,18.2
2022-08-23T02:23:01.886Z,18.2
2022-08-23T02:28:01.614Z,18.1
2022-08-23T02:33:01.794Z,18.0
2022-08-23T02:38:01.830Z,18.0
2022-08-23T02:43:01.617Z,18.0
2022-08-23T02:48:01.823Z,17.9
2022-08-23T02:53:01.618Z,17.9
2022-08-23T02:58:01.776Z,17.8
2022-08-23T03:03:01.633Z,17.7
2022-08-23T03:08:01.812Z,17.7
2022-08-23T03:13:01.628Z,17.6
2022-08-23T03:18:01.818Z,17.6
2022-08-23T03:23:01.633Z,17.6
2022-08-23T03:28:01.917Z,17.6
2022-08-23T03:33:01.638Z,17.5
2022-08-23T03:38:01.841Z,17.5
2022-08-23T03:43:01.652Z,17.5
2022-08-23T03:48:01.964Z,17.5
2022-08-23T03:53:01.652Z,17.5
2022-08-23T03:58:01.930Z,17.6
2022-08-23T04:03:01.663Z,17.6
2022-08-23T04:08:01.966Z,17.6
2022-08-23T04:13:01.661Z,17.6
2022-08-23T04:18:01.903Z,17.6
2022-08-23T04:23:01.675Z,17.7
2022-08-23T04:28:02.013Z,17.7
2022-08-23T04:33:01.874Z,17.8
2022-08-23T04:38:01.927Z,17.8
2022-08-23T04:43:01.685Z,17.8
2022-08-23T04:48:01.974Z,17.7
2022-08-23T04:53:01.697Z,17.7
2022-08-23T04:58:02.000Z,17.6
2022-08-23T05:03:01.697Z,17.6
2022-08-23T05:08:01.890Z,17.7
2022-08-23T05:13:01.707Z,17.7
2022-08-23T05:18:01.857Z,17.9
2022-08-23T05:23:01.707Z,18.0
2022-08-23T05:28:01.846Z,18.2
2022-08-23T05:33:01.714Z,18.3
2022-08-23T05:38:01.871Z,18.4
2022-08-23T05:43:01.717Z,18.5
2022-08-23T05:48:01.880Z,18.7
2022-08-23T05:53:01.734Z,18.8
2022-08-23T05:58:01.930Z,19.0
2022-08-23T06:03:01.737Z,19.1
2022-08-23T06:08:02.078Z,19.3
2022-08-23T06:13:01.747Z,19.5
2022-08-23T06:18:02.019Z,19.7
2022-08-23T06:23:01.762Z,19.9
2022-08-23T06:28:01.965Z,20.1
2022-08-23T06:33:01.764Z,20.3
2022-08-23T06:38:02.018Z,20.6
2022-08-23T06:43:01.773Z,20.9
2022-08-23T06:48:01.945Z,21.3
2022-08-23T06:53:01.784Z,21.6
2022-08-23T06:58:01.965Z,21.8
2022-08-23T07:03:01.928Z,22.2
2022-08-23T07:08:01.803Z,22.6
2022-08-23T07:13:02.063Z,23.0
2022-08-23T07:18:01.807Z,23.3
2022-08-23T07:23:01.962Z,23.7
2022-08-23T07:28:02.074Z,24.1
2022-08-23T07:33:02.061Z,24.4
2022-08-23T07:38:01.975Z,24.8
2022-08-23T07:43:02.035Z,25.1
2022-08-23T07:48:02.059Z,25.4
2022-08-23T07:53:01.747Z,25.7
2022-08-23T07:58:02.028Z,26.0
2022-08-23T08:03:01.818Z,26.2
2022-08-23T08:08:01.914Z,26.4
2022-08-23T08:13:01.764Z,26.6
2022-08-23T08:18:02.013Z,26.8
2022-08-23T08:23:01.774Z,27.0
2022-08-23T08:28:01.903Z,27.0
2022-08-23T08:33:01.988Z,27.0
2022-08-23T08:38:01.791Z,27.1
2022-08-23T08:43:02.019Z,27.1
2022-08-23T08:48:02.013Z,27.1
2022-08-23T08:53:01.819Z,27.1
2022-08-23T08:58:02.075Z,27.2
2022-08-23T09:03:01.840Z,27.4
2022-08-23T09:08:02.019Z,27.6
2022-08-23T09:13:01.813Z,27.8
2022-08-23T09:18:01.997Z,27.9
2022-08-23T09:23:01.819Z,28.0
2022-08-23T09:28:02.058Z,28.1
2022-08-23T09:33:01.827Z,28.2
2022-08-23T09:38:01.949Z,28.3
2022-08-23T09:43:01.843Z,28.4
2022-08-23T09:48:02.117Z,28.6
2022-08-23T09:53:04.390Z,28.7
2022-08-23T09:58:01.851Z,29.0
2022-08-23T10:03:02.064Z,29.3
2022-08-23T10:08:01.859Z,29.4
2022-08-23T10:13:02.125Z,29.5
2022-08-23T10:18:01.974Z,29.6
2022-08-23T10:23:01.868Z,29.8
2022-08-23T10:28:02.089Z,29.9
2022-08-23T10:33:01.880Z,30.0
2022-08-23T10:38:02.156Z,30.0
2022-08-23T10:43:01.894Z,30.1
2022-08-23T10:48:02.173Z,30.2
2022-08-23T10:53:01.896Z,30.2
2022-08-23T10:58:02.039Z,30.4
2022-08-23T11:03:01.938Z,30.4
2022-08-23T11:08:02.104Z,30.5
2022-08-23T11:13:01.908Z,30.6
2022-08-23T11:18:02.063Z,30.6
2022-08-23T11:23:01.921Z,30.6
2022-08-23T11:28:02.103Z,30.6
2022-08-23T11:33:01.916Z,30.6
2022-08-23T11:38:03.833Z,30.6
2022-08-23T11:43:02.034Z,30.7
2022-08-23T11:48:02.238Z,30.6
2022-08-23T11:53:01.974Z,30.8
2022-08-23T11:58:02.232Z,30.8
2022-08-23T12:03:02.159Z,30.8
2022-08-23T12:08:02.261Z,30.8
2022-08-23T12:13:01.942Z,31.0
2022-08-23T12:18:02.109Z,31.0
2022-08-23T12:23:01.954Z,31.0
2022-08-23T12:28:02.149Z,31.2
2022-08-23T12:33:01.954Z,31.2
2022-08-23T12:38:02.153Z,31.1
2022-08-23T12:43:02.104Z,31.1
2022-08-23T12:48:01.981Z,31.1
2022-08-23T12:53:02.271Z,31.1
2022-08-23T12:58:01.977Z,31.1
2022-08-23T13:03:02.281Z,31.5
2022-08-23T13:08:01.971Z,31.7
2022-08-23T13:13:02.088Z,32.0
2022-08-23T13:18:02.193Z,32.1
2022-08-23T13:23:02.142Z,32.2
2022-08-23T13:28:02.009Z,32.5
2022-08-23T13:33:02.225Z,32.5
2022-08-23T13:38:02.007Z,32.6
2022-08-23T13:43:02.249Z,32.8
2022-08-23T13:48:02.013Z,32.9
2022-08-23T13:53:13.958Z,32.8
2022-08-23T13:58:02.027Z,32.8
2022-08-23T14:03:02.189Z,33.1
2022-08-23T14:08:02.038Z,33.5
2022-08-23T14:13:02.295Z,33.7
2022-08-23T14:18:02.038Z,33.9
2022-08-23T14:23:08.662Z,34.0
2022-08-23T14:28:02.047Z,34.0
2022-08-23T14:33:02.145Z,34.1
2022-08-23T14:38:03.720Z,34.2
2022-08-23T14:43:02.258Z,34.3
2022-08-23T14:48:02.156Z,34.4
2022-08-23T14:53:02.214Z,34.4
2022-08-23T14:58:02.062Z,34.2
2022-08-23T15:03:04.212Z,34.2
2022-08-23T15:08:02.064Z,34.2
2022-08-23T15:13:17.428Z,34.1
2022-08-23T15:18:02.200Z,34.1
2022-08-23T15:23:02.082Z,34.2
2022-08-23T15:28:02.089Z,34.2
2022-08-23T15:33:02.082Z,33.9
2022-08-23T15:38:02.082Z,33.6
2022-08-23T15:43:02.333Z,33.2
2022-08-23T15:48:02.084Z,32.9
2022-08-23T15:53:02.281Z,32.6
2022-08-23T15:58:02.085Z,32.6
2022-08-23T16:03:27.771Z,32.8
2022-08-23T16:08:02.090Z,33.0
2022-08-23T16:13:02.337Z,33.2
2022-08-23T16:18:02.096Z,33.3
2022-08-23T16:23:02.220Z,33.4
2022-08-23T16:28:02.112Z,33.5
2022-08-23T16:33:02.307Z,33.4
2022-08-23T16:38:02.123Z,33.5
2022-08-23T16:43:02.186Z,33.5
2022-08-23T16:48:02.118Z,33.4
2022-08-23T16:53:06.930Z,33.3
2022-08-23T16:58:02.123Z,33.2
2022-08-23T17:03:02.280Z,33.2
2022-08-23T17:08:02.131Z,33.1
2022-08-23T17:13:02.353Z,33.0
2022-08-23T17:18:02.131Z,32.9
2022-08-23T17:23:05.662Z,32.7
2022-08-23T17:28:02.150Z,32.6
2022-08-23T17:33:02.442Z,32.5
2022-08-23T17:38:02.174Z,32.4
2022-08-23T17:43:02.356Z,32.1
2022-08-23T17:48:02.146Z,31.9
2022-08-23T17:53:02.362Z,31.7
2022-08-23T17:58:04.176Z,31.6
2022-08-23T18:03:02.306Z,31.5
2022-08-23T18:08:02.154Z,31.2
2022-08-23T18:13:02.383Z,31.0
2022-08-23T18:18:02.178Z,30.7
2022-08-23T18:23:02.254Z,30.4
2022-08-23T18:28:02.166Z,30.1
2022-08-23T18:33:02.313Z,29.8
2022-08-23T18:38:02.158Z,29.5
2022-08-23T18:43:02.337Z,29.1
2022-08-23T18:48:02.171Z,28.8
2022-08-23T18:53:02.353Z,28.4
2022-08-23T18:58:02.161Z,28.1
2022-08-23T19:03:02.322Z,27.8
2022-08-23T19:08:02.171Z,27.5
2022-08-23T19:13:02.163Z,27.3
2022-08-23T19:18:02.171Z,27.1
2022-08-23T19:23:02.377Z,26.9
2022-08-23T19:28:02.177Z,26.7
2022-08-23T19:33:02.352Z,26.4
2022-08-23T19:38:02.169Z,26.2
2022-08-23T19:43:02.334Z,26.0
2022-08-23T19:48:02.177Z,25.8
2022-08-23T19:53:03.516Z,25.7
2022-08-23T19:58:02.182Z,25.6
2022-08-23T20:03:02.333Z,25.5
2022-08-23T20:08:02.180Z,25.4
2022-08-23T20:13:02.291Z,25.4
2022-08-23T20:18:02.190Z,25.3
2022-08-23T20:23:02.463Z,25.2
2022-08-23T20:28:02.296Z,25.1
2022-08-23T20:33:02.444Z,24.9
2022-08-23T20:38:02.510Z,24.8
2022-08-23T20:43:02.536Z,24.8
2022-08-23T20:48:02.304Z,24.7
2022-08-23T20:53:02.430Z,24.6
2022-08-23T20:58:02.311Z,24.5
2022-08-23T21:03:02.497Z,24.4
2022-08-23T21:08:02.330Z,24.4
2022-08-23T21:13:02.424Z,24.3
2022-08-23T21:18:02.318Z,24.2
2022-08-23T21:23:02.474Z,24.1
2022-08-23T21:28:04.303Z,24.1
2022-08-23T21:33:02.531Z,24.0
2022-08-23T21:38:02.324Z,24.0
2022-08-23T21:43:02.440Z,23.9
2022-08-23T21:48:02.325Z,23.8
2022-08-23T21:53:02.336Z,23.7
2022-08-23T21:58:02.344Z,23.7
2022-08-23T22:03:02.630Z,23.6
2022-08-23T22:08:02.342Z,23.5
2022-08-23T22:13:02.467Z,23.4
2022-08-23T22:18:02.348Z,23.4
2022-08-23T22:23:02.501Z,23.3
2022-08-23T22:28:02.353Z,23.2
2022-08-23T22:33:02.498Z,23.1
2022-08-23T22:43:02.359Z,23.0
2022-08-23T22:48:02.508Z,22.9
2022-08-23T22:53:02.367Z,22.8
2022-08-23T22:58:02.480Z,22.7
2022-08-23T23:03:02.392Z,22.6
2022-08-23T23:08:02.449Z,22.5
2022-08-23T23:13:02.384Z,22.5
2022-08-23T23:18:02.481Z,22.5
2022-08-23T23:23:02.377Z,22.5
2022-08-23T23:28:02.539Z,22.4
2022-08-23T23:33:02.385Z,22.3
2022-08-23T23:38:02.622Z,22.3
2022-08-23T23:43:02.386Z,22.2
2022-08-23T23:48:02.525Z,22.1
2022-08-23T23:53:02.395Z,21.9
2022-08-23T23:58:02.634Z,21.7
